createdAt,value
2023-04-07T00:01:24.992Z,64.58
2023-04-07T00:06:28.333Z,66.66
2023-04-07T00:11:31.533Z,65.61
2023-04-07T00:16:34.985Z,63.59
2023-04-07T00:21:37.652Z,62.07
2023-04-07T00:26:40.784Z,60.94
2023-04-07T00:31:43.642Z,57.98
2023-04-07T00:36:52.029Z,54.99
2023-04-07T00:41:54.787Z,57.64
2023-04-07T00:46:57.986Z,60.93
2023-04-07T00:52:01.545Z,67.01
2023-04-07T00:57:04.351Z,70.35
2023-04-07T01:02:29.394Z,66.67
2023-04-07T01:07:40.036Z,63.84
2023-04-07T01:13:14.126Z,62.55
2023-04-07T01:18:23.609Z,61.55
2023-04-07T01:24:05.258Z,56.37
2023-04-07T01:29:33.238Z,56.34
2023-04-07T01:34:38.711Z,60.65
2023-04-07T01:39:41.694Z,66.64
2023-04-07T01:44:45.813Z,68.70
2023-04-07T01:49:49.962Z,65.35
2023-04-07T01:54:54.204Z,62.87
2023-04-07T01:59:57.209Z,61.45
2023-04-07T02:05:05.857Z,56.74
2023-04-07T02:10:13.802Z,58.77
2023-04-07T02:15:18.622Z,61.70
2023-04-07T02:20:23.266Z,67.68
2023-04-07T02:25:30.874Z,69.20
2023-04-07T02:30:34.888Z,67.25
2023-04-07T02:35:37.605Z,64.37
2023-04-07T02:40:40.524Z,61.04
2023-04-07T02:45:43.736Z,59.24
2023-04-07T02:50:46.508Z,54.75
2023-04-07T02:55:49.230Z,58.04
2023-04-07T03:00:51.962Z,60.64
2023-04-07T03:05:54.822Z,68.66
2023-04-07T03:10:57.626Z,66.08
2023-04-07T03:16:00.331Z,63.43
2023-04-07T03:21:03.648Z,57.82
2023-04-07T03:26:06.941Z,58.62
2023-04-07T03:31:09.868Z,65.64
2023-04-07T03:36:14.133Z,64.39
2023-04-07T03:41:16.991Z,62.61
2023-04-07T03:46:21.566Z,61.77
2023-04-07T03:51:24.545Z,60.13
2023-04-07T03:56:28.962Z,55.76
2023-04-07T04:01:31.914Z,57.10
2023-04-07T04:06:34.816Z,60.17
2023-04-07T04:11:38.211Z,67.46
2023-04-07T04:16:40.975Z,68.20
2023-04-07T04:21:43.843Z,66.08
2023-04-07T04:26:46.822Z,62.98
2023-04-07T04:31:49.571Z,61.55
2023-04-07T04:36:52.459Z,56.53
2023-04-07T04:41:56.760Z,58.03
2023-04-07T04:46:59.653Z,61.74
2023-04-07T04:52:02.565Z,68.58
2023-04-07T04:57:05.386Z,66.25
2023-04-07T05:02:08.397Z,63.47
2023-04-07T05:07:11.505Z,60.72
2023-04-07T05:12:14.289Z,56.53
2023-04-07T05:17:17.092Z,56.73
2023-04-07T05:22:19.789Z,59.65
2023-04-07T05:27:22.591Z,69.06
2023-04-07T05:32:29.197Z,64.90
2023-04-07T05:37:31.934Z,63.19
2023-04-07T05:42:34.716Z,58.13
2023-04-07T05:47:37.975Z,59.41
2023-04-07T05:52:41.017Z,65.72
2023-04-07T05:57:43.788Z,65.79
2023-04-07T06:02:47.103Z,64.00
2023-04-07T06:07:50.120Z,61.41
2023-04-07T06:12:52.828Z,60.52
2023-04-07T06:17:55.568Z,59.79
2023-04-07T06:22:58.423Z,56.26
2023-04-07T06:28:01.344Z,59.13
2023-04-07T06:33:04.196Z,66.64
2023-04-07T06:38:07.548Z,65.38
2023-04-07T06:43:10.496Z,62.43
2023-04-07T06:48:13.280Z,61.27
2023-04-07T06:53:16.043Z,60.26
2023-04-07T06:58:18.848Z,57.73
2023-04-07T07:03:22.253Z,60.19
2023-04-07T07:08:26.507Z,65.50
2023-04-07T07:13:29.304Z,64.35
2023-04-07T07:18:32.107Z,61.64
2023-04-07T07:23:34.908Z,59.80
2023-04-07T07:28:37.711Z,56.17
2023-04-07T07:33:41.740Z,58.82
2023-04-07T07:38:44.505Z,62.29
2023-04-07T07:43:47.606Z,67.55
2023-04-07T07:48:50.511Z,64.33
2023-04-07T07:53:53.870Z,61.24
2023-04-07T07:58:58.306Z,57.74
2023-04-07T08:04:01.766Z,60.51
2023-04-07T08:09:06.346Z,64.96
2023-04-07T08:14:09.994Z,62.62
2023-04-07T08:19:13.717Z,60.77
2023-04-07T08:24:16.615Z,57.29
2023-04-07T08:29:19.527Z,60.23
2023-04-07T08:34:22.536Z,65.37
2023-04-07T08:39:28.312Z,61.60
2023-04-07T08:44:31.407Z,57.95
2023-04-07T08:49:37.751Z,60.71
2023-04-07T08:54:40.947Z,63.74
2023-04-07T08:59:45.540Z,62.42
2023-04-07T09:04:48.482Z,58.49
2023-04-07T09:09:51.624Z,60.91
2023-04-07T09:14:54.895Z,63.51
2023-04-07T09:19:59.715Z,58.08
2023-04-07T09:25:14.878Z,59.12
2023-04-07T09:30:17.589Z,63.43
2023-04-07T09:35:23.374Z,60.47
2023-04-07T09:40:27.949Z,55.59
2023-04-07T09:45:36.942Z,57.35
2023-04-07T09:50:41.691Z,59.48
2023-04-07T09:55:45.123Z,60.87
2023-04-07T10:00:48.284Z,60.77
2023-04-07T10:05:52.413Z,60.58
2023-04-07T10:10:57.577Z,60.60
2023-04-07T10:16:04.107Z,59.67
2023-04-07T10:21:08.204Z,57.48
2023-04-07T10:26:12.330Z,55.43
2023-04-07T10:31:16.360Z,53.08
2023-04-07T10:36:21.140Z,53.06
2023-04-07T10:41:38.069Z,51.17
2023-04-07T10:46:50.256Z,48.60
2023-04-07T10:52:11.496Z,45.07
2023-04-07T10:57:16.283Z,42.03
2023-04-07T11:02:25.480Z,40.15
2023-04-07T11:07:46.761Z,38.68
2023-04-07T11:13:04.272Z,37.84
2023-04-07T11:18:33.022Z,37.15
2023-04-07T11:23:41.027Z,34.89
2023-04-07T11:28:52.615Z,32.77
2023-04-07T11:34:00.858Z,31.66
2023-04-07T11:39:04.041Z,30.05
2023-04-07T11:44:11.742Z,28.64
2023-04-07T11:49:16.006Z,29.19
2023-04-07T11:54:18.990Z,28.23
2023-04-07T11:59:24.706Z,27.23
2023-04-07T12:04:28.674Z,26.00
2023-04-07T12:09:36.512Z,25.51
2023-04-07T12:14:39.621Z,25.32
2023-04-07T12:19:43.136Z,26.24
2023-04-07T12:24:46.287Z,25.89
2023-04-07T12:29:49.047Z,26.53
2023-04-07T12:34:51.849Z,26.70
2023-04-07T12:39:54.955Z,26.56
2023-04-07T12:44:57.837Z,27.64
2023-04-07T12:50:01.406Z,29.33
2023-04-07T12:55:04.907Z,29.06
2023-04-07T13:00:08.433Z,29.37
2023-04-07T13:05:13.349Z,30.55
2023-04-07T13:10:16.295Z,32.38
2023-04-07T13:15:19.379Z,34.05
2023-04-07T13:20:22.232Z,35.22
2023-04-07T13:25:25.098Z,36.39
2023-04-07T13:30:27.894Z,36.78
2023-04-07T13:35:33.902Z,37.36
2023-04-07T13:40:36.767Z,37.61
2023-04-07T13:45:39.491Z,38.04
2023-04-07T13:50:42.258Z,38.96
2023-04-07T13:55:45.076Z,37.88
2023-04-07T14:00:47.767Z,35.74
2023-04-07T14:05:50.467Z,35.04
2023-04-07T14:10:53.597Z,35.52
2023-04-07T14:15:56.318Z,37.04
2023-04-07T14:21:00.625Z,37.78
2023-04-07T14:26:04.073Z,37.96
2023-04-07T14:31:07.603Z,38.36
2023-04-07T14:36:10.776Z,38.79
2023-04-07T14:41:13.715Z,38.58
2023-04-07T14:46:16.507Z,39.15
2023-04-07T14:51:20.096Z,40.00
2023-04-07T14:56:22.972Z,40.85
2023-04-07T15:01:25.739Z,41.96
2023-04-07T15:06:28.555Z,43.51
2023-04-07T15:11:32.675Z,44.43
2023-04-07T15:16:35.937Z,44.81
2023-04-07T15:21:38.685Z,45.67
2023-04-07T15:26:41.646Z,46.38
2023-04-07T15:31:44.458Z,47.34
2023-04-07T15:36:47.348Z,48.20
2023-04-07T15:41:50.091Z,48.93
2023-04-07T15:46:54.167Z,49.38
2023-04-07T15:51:56.969Z,49.87
2023-04-07T15:56:59.891Z,50.15
2023-04-07T16:02:03.020Z,50.35
2023-04-07T16:07:05.911Z,50.95
2023-04-07T16:12:09.204Z,50.92
2023-04-07T16:17:12.117Z,51.58
2023-04-07T16:22:14.920Z,51.95
2023-04-07T16:27:17.621Z,53.43
2023-04-07T16:32:20.490Z,56.98
2023-04-07T16:37:23.337Z,63.34
2023-04-07T16:42:28.717Z,62.59
2023-04-07T16:47:32.088Z,61.38
2023-04-07T16:52:34.959Z,62.54
2023-04-07T16:57:37.715Z,60.14
2023-04-07T17:02:40.548Z,58.11
2023-04-07T17:07:43.598Z,62.67
2023-04-07T17:12:52.253Z,66.94
2023-04-07T17:17:55.002Z,64.72
2023-04-07T17:22:57.778Z,63.63
2023-04-07T17:28:00.564Z,61.20
2023-04-07T17:33:08.384Z,56.36
2023-04-07T17:38:11.548Z,57.28
2023-04-07T17:43:15.109Z,67.97
2023-04-07T17:48:17.844Z,66.97
2023-04-07T17:53:20.808Z,62.61
2023-04-07T17:58:23.615Z,56.79
2023-04-07T18:03:26.633Z,59.41
2023-04-07T18:08:30.649Z,63.86
2023-04-07T18:13:34.100Z,66.49
2023-04-07T18:18:40.444Z,60.33
2023-04-07T18:23:43.263Z,60.05
2023-04-07T18:28:46.482Z,64.31
2023-04-07T18:33:49.324Z,63.45
2023-04-07T18:38:52.277Z,62.02
2023-04-07T18:43:55.407Z,61.67
2023-04-07T18:48:58.375Z,62.08
2023-04-07T18:54:01.108Z,59.51
2023-04-07T18:59:03.932Z,62.20
2023-04-07T19:04:06.860Z,68.24
2023-04-07T19:09:10.358Z,67.50
2023-04-07T19:14:13.703Z,66.23
2023-04-07T19:19:17.852Z,64.46
2023-04-07T19:24:20.969Z,64.63
2023-04-07T19:29:23.784Z,63.33
2023-04-07T19:34:27.246Z,62.80
2023-04-07T19:39:31.117Z,57.70
2023-04-07T19:44:34.457Z,58.04
2023-04-07T19:49:37.844Z,67.22
2023-04-07T19:54:40.541Z,68.26
2023-04-07T19:59:43.244Z,66.24
2023-04-07T20:04:46.148Z,64.57
2023-04-07T20:09:51.560Z,63.13
2023-04-07T20:14:54.238Z,62.27
2023-04-07T20:19:56.927Z,62.62
2023-04-07T20:24:59.710Z,61.94
2023-04-07T20:30:03.201Z,57.17
2023-04-07T20:35:06.960Z,60.27
2023-04-07T20:40:10.169Z,66.42
2023-04-07T20:45:13.071Z,65.74
2023-04-07T20:50:16.008Z,65.22
2023-04-07T20:55:18.986Z,66.45
2023-04-07T21:00:21.991Z,65.65
2023-04-07T21:05:24.689Z,62.93
2023-04-07T21:10:27.395Z,61.21
2023-04-07T21:15:30.217Z,60.20
2023-04-07T21:20:32.911Z,59.22
2023-04-07T21:25:39.276Z,60.42
2023-04-07T21:30:42.177Z,66.52
2023-04-07T21:35:44.879Z,65.15
2023-04-07T21:40:47.696Z,62.44
2023-04-07T21:45:50.961Z,58.30
2023-04-07T21:50:53.769Z,60.44
2023-04-07T21:55:56.551Z,66.01
2023-04-07T22:00:59.294Z,64.66
2023-04-07T22:06:02.092Z,61.33
2023-04-07T22:11:05.104Z,59.12
2023-04-07T22:16:07.945Z,57.76
2023-04-07T22:21:10.758Z,63.65
2023-04-07T22:26:14.300Z,64.52
2023-04-07T22:31:17.040Z,61.94
2023-04-07T22:36:19.804Z,60.15
2023-04-07T22:41:22.834Z,56.16
2023-04-07T22:46:25.962Z,57.77
2023-04-07T22:51:29.494Z,65.68
2023-04-07T22:56:32.246Z,65.44
2023-04-07T23:01:35.183Z,61.89
2023-04-07T23:06:38.091Z,61.14
2023-04-07T23:11:40.977Z,57.75
2023-04-07T23:16:43.810Z,58.06
2023-04-07T23:21:46.678Z,63.87
2023-04-07T23:26:49.407Z,67.63
2023-04-07T23:31:52.832Z,63.23
2023-04-07T23:36:56.288Z,59.69
2023-04-07T23:41:59.019Z,59.58
2023-04-07T23:47:01.793Z,65.23
2023-04-07T23:52:04.620Z,64.41
2023-04-07T23:57:07.552Z,63.51
